Rechercher aéroport 
image banner adimage banner adimage banner ad
image banner ad

KDAG - Barstow-Daggett

Situé à Daggett, United States

ICAO - DAG, IATA - DAG

Données fournies par Airmate  

Information générale

Coordonnées: N34°51'13" W116°47'12"
Élévation : 1930 feet MSL.
Variation magnétique : 15° East
Voir autres Aéroports à California

Données opérationnelles

Special qualification required
Heure actuelle UTC:
Heure actuelle locale:
Météo
METAR: KDAG 260850Z AUTO 24005KT 10SM BKN100 24/10 A2997 RMK AO2 LTG DSNT NE SLP121 T02440100 53004 $
TAF: KDAG 260859Z 2609/2706 26008KT P6SM VCTS BKN100CB FM261100 26008KT P6SM SCT100 FM261600 30007KT P6SM FEW120 FM261900 08010KT P6SM FEW120 FM270200 24012KT P6SM SKC
Voir NOTAMs / SUP AIP / TFR affectant cet aéroport [VIEW]
Fréquences de communication: [VIEW]

Pistes:

Identifiant RWYQFULongueur (ft)Largeur (ft)SurfaceLDA (ft)
0450°5123100ASPH
22230°5123100ASPH
0889°6402150ASPH
26270°6402150ASPH

Coordonnées de l'aéroport

Adresse: Daggett United States

Vue satellite de KDAG